Terminal Aerodrome Forecast
Issued by NWS Tallahassee, FL

Home | Current Version | Previous Version | Text Only | Print | Product List | Glossary On
Versions: 1 2 3 4 5 6 7 8 9 10 11 12 13 14 15 16
000
FTUS42 KTAE 011300 AAA
TAFTLH
TAF AMD
KTLH 011314Z 0113/0212 06005KT 4SM BR OVC004
      TEMPO 0113/0116 1SM BR OVC002
     FM020900 00000KT 1SM BR OVC004=

USA.gov is the U.S. government's official web portal to all federal, state and local government web resources and services.